sensor_id;sensor_type;location;lat;lon;timestamp;P1;durP1;ratioP1;P2;durP2;ratioP2
35917;SDS011;22011;59.912;30.300;2023-12-28T00:00:50;6.88;;;4.35;;
35917;SDS011;22011;59.912;30.300;2023-12-28T00:03:17;5.97;;;3.67;;
35917;SDS011;22011;59.912;30.300;2023-12-28T00:05:45;9.13;;;4.03;;
35917;SDS011;22011;59.912;30.300;2023-12-28T00:08:13;5.57;;;3.65;;
35917;SDS011;22011;59.912;30.300;2023-12-28T00:10:40;6.60;;;3.92;;
35917;SDS011;22011;59.912;30.300;2023-12-28T00:13:08;8.80;;;4.50;;
35917;SDS011;22011;59.912;30.300;2023-12-28T00:15:36;9.32;;;4.70;;
35917;SDS011;22011;59.912;30.300;2023-12-28T00:18:05;8.00;;;4.15;;
35917;SDS011;22011;59.912;30.300;2023-12-28T00:20:32;5.70;;;3.53;;
35917;SDS011;22011;59.912;30.300;2023-12-28T00:23:00;8.02;;;4.50;;
35917;SDS011;22011;59.912;30.300;2023-12-28T00:25:28;6.13;;;4.07;;
35917;SDS011;22011;59.912;30.300;2023-12-28T00:27:55;8.23;;;4.65;;
35917;SDS011;22011;59.912;30.300;2023-12-28T00:30:23;6.15;;;4.00;;
35917;SDS011;22011;59.912;30.300;2023-12-28T00:32:50;6.68;;;3.90;;
35917;SDS011;22011;59.912;30.300;2023-12-28T00:35:19;6.68;;;3.72;;
35917;SDS011;22011;59.912;30.300;2023-12-28T00:37:48;6.05;;;3.05;;
35917;SDS011;22011;59.912;30.300;2023-12-28T00:40:16;5.57;;;3.15;;
35917;SDS011;22011;59.912;30.300;2023-12-28T00:42:43;9.23;;;3.58;;
35917;SDS011;22011;59.912;30.300;2023-12-28T00:45:11;6.80;;;3.95;;
35917;SDS011;22011;59.912;30.300;2023-12-28T00:47:39;6.78;;;3.50;;
35917;SDS011;22011;59.912;30.300;2023-12-28T00:50:08;6.47;;;4.07;;
35917;SDS011;22011;59.912;30.300;2023-12-28T00:52:39;8.35;;;4.32;;
35917;SDS011;22011;59.912;30.300;2023-12-28T00:55:06;8.23;;;4.72;;
35917;SDS011;22011;59.912;30.300;2023-12-28T00:57:35;8.02;;;4.95;;
35917;SDS011;22011;59.912;30.300;2023-12-28T01:00:03;7.38;;;4.45;;
35917;SDS011;22011;59.912;30.300;2023-12-28T01:02:32;8.27;;;4.90;;
35917;SDS011;22011;59.912;30.300;2023-12-28T01:04:59;9.63;;;4.82;;
35917;SDS011;22011;59.912;30.300;2023-12-28T01:07:27;8.20;;;4.63;;
35917;SDS011;22011;59.912;30.300;2023-12-28T01:09:56;9.50;;;4.85;;
35917;SDS011;22011;59.912;30.300;2023-12-28T01:12:24;10.23;;;5.00;;
35917;SDS011;22011;59.912;30.300;2023-12-28T01:14:52;9.40;;;5.10;;
35917;SDS011;22011;59.912;30.300;2023-12-28T01:17:20;7.50;;;4.50;;
35917;SDS011;22011;59.912;30.300;2023-12-28T01:19:48;7.43;;;4.38;;
35917;SDS011;22011;59.912;30.300;2023-12-28T01:22:16;8.18;;;4.38;;
35917;SDS011;22011;59.912;30.300;2023-12-28T01:24:45;7.30;;;4.47;;
35917;SDS011;22011;59.912;30.300;2023-12-28T01:27:16;8.90;;;4.53;;
35917;SDS011;22011;59.912;30.300;2023-12-28T01:29:44;6.05;;;4.70;;
35917;SDS011;22011;59.912;30.300;2023-12-28T01:32:12;8.38;;;4.78;;
35917;SDS011;22011;59.912;30.300;2023-12-28T01:34:39;7.72;;;4.70;;
35917;SDS011;22011;59.912;30.300;2023-12-28T01:37:08;10.02;;;4.72;;
35917;SDS011;22011;59.912;30.300;2023-12-28T01:39:36;8.77;;;4.55;;
35917;SDS011;22011;59.912;30.300;2023-12-28T01:42:03;7.43;;;4.03;;
35917;SDS011;22011;59.912;30.300;2023-12-28T01:44:32;9.25;;;5.18;;
35917;SDS011;22011;59.912;30.300;2023-12-28T01:47:00;8.02;;;4.68;;
35917;SDS011;22011;59.912;30.300;2023-12-28T01:49:28;7.50;;;3.67;;
35917;SDS011;22011;59.912;30.300;2023-12-28T01:51:57;8.60;;;4.68;;
35917;SDS011;22011;59.912;30.300;2023-12-28T01:54:26;6.90;;;4.15;;
35917;SDS011;22011;59.912;30.300;2023-12-28T01:56:54;8.38;;;4.45;;
35917;SDS011;22011;59.912;30.300;2023-12-28T01:59:22;5.82;;;3.45;;
35917;SDS011;22011;59.912;30.300;2023-12-28T02:01:51;6.20;;;3.53;;
35917;SDS011;22011;59.912;30.300;2023-12-28T02:04:19;7.07;;;3.97;;
35917;SDS011;22011;59.912;30.300;2023-12-28T02:06:54;6.28;;;3.88;;
35917;SDS011;22011;59.912;30.300;2023-12-28T02:09:24;6.60;;;3.20;;
35917;SDS011;22011;59.912;30.300;2023-12-28T02:11:52;7.60;;;3.53;;
35917;SDS011;22011;59.912;30.300;2023-12-28T02:14:20;5.68;;;3.78;;
35917;SDS011;22011;59.912;30.300;2023-12-28T02:16:52;5.60;;;3.53;;
35917;SDS011;22011;59.912;30.300;2023-12-28T02:19:31;7.00;;;4.03;;
35917;SDS011;22011;59.912;30.300;2023-12-28T02:22:07;8.02;;;4.78;;
35917;SDS011;22011;59.912;30.300;2023-12-28T02:27:32;6.40;;;4.13;;
35917;SDS011;22011;59.912;30.300;2023-12-28T02:30:01;8.55;;;4.97;;
35917;SDS011;22011;59.912;30.300;2023-12-28T02:32:35;7.93;;;4.13;;
35917;SDS011;22011;59.912;30.300;2023-12-28T02:35:09;8.55;;;4.32;;
35917;SDS011;22011;59.912;30.300;2023-12-28T02:37:44;5.90;;;3.60;;
35917;SDS011;22011;59.912;30.300;2023-12-28T02:40:15;6.35;;;3.55;;
35917;SDS011;22011;59.912;30.300;2023-12-28T02:42:46;5.63;;;3.47;;
35917;SDS011;22011;59.912;30.300;2023-12-28T02:45:14;6.10;;;4.18;;
35917;SDS011;22011;59.912;30.300;2023-12-28T02:47:42;5.43;;;3.67;;
35917;SDS011;22011;59.912;30.300;2023-12-28T02:50:10;6.35;;;4.20;;
35917;SDS011;22011;59.912;30.300;2023-12-28T02:52:39;4.93;;;2.95;;
35917;SDS011;22011;59.912;30.300;2023-12-28T02:55:07;7.07;;;4.20;;
35917;SDS011;22011;59.912;30.300;2023-12-28T02:57:34;5.80;;;3.88;;
35917;SDS011;22011;59.912;30.300;2023-12-28T03:00:06;7.30;;;4.57;;
35917;SDS011;22011;59.912;30.300;2023-12-28T03:02:35;7.35;;;4.13;;
35917;SDS011;22011;59.912;30.300;2023-12-28T03:05:04;6.63;;;4.25;;
35917;SDS011;22011;59.912;30.300;2023-12-28T03:07:32;8.98;;;4.22;;
35917;SDS011;22011;59.912;30.300;2023-12-28T03:10:00;5.03;;;3.60;;
35917;SDS011;22011;59.912;30.300;2023-12-28T03:12:28;6.25;;;4.07;;
35917;SDS011;22011;59.912;30.300;2023-12-28T03:14:57;10.45;;;4.45;;
35917;SDS011;22011;59.912;30.300;2023-12-28T03:17:26;6.70;;;4.22;;
35917;SDS011;22011;59.912;30.300;2023-12-28T03:19:55;7.95;;;4.40;;
35917;SDS011;22011;59.912;30.300;2023-12-28T03:22:22;6.38;;;4.30;;
35917;SDS011;22011;59.912;30.300;2023-12-28T03:24:51;6.53;;;3.72;;
35917;SDS011;22011;59.912;30.300;2023-12-28T03:27:18;6.60;;;4.63;;
35917;SDS011;22011;59.912;30.300;2023-12-28T03:29:46;6.25;;;3.85;;
35917;SDS011;22011;59.912;30.300;2023-12-28T03:32:14;7.25;;;4.13;;
35917;SDS011;22011;59.912;30.300;2023-12-28T03:34:44;9.15;;;4.55;;
35917;SDS011;22011;59.912;30.300;2023-12-28T03:37:12;7.90;;;4.63;;
35917;SDS011;22011;59.912;30.300;2023-12-28T03:39:39;7.18;;;4.40;;
35917;SDS011;22011;59.912;30.300;2023-12-28T03:42:07;7.95;;;5.50;;
35917;SDS011;22011;59.912;30.300;2023-12-28T03:44:34;10.00;;;4.55;;
35917;SDS011;22011;59.912;30.300;2023-12-28T03:47:03;12.18;;;7.72;;
35917;SDS011;22011;59.912;30.300;2023-12-28T03:49:31;16.15;;;10.98;;
35917;SDS011;22011;59.912;30.300;2023-12-28T03:51:59;16.45;;;11.25;;
35917;SDS011;22011;59.912;30.300;2023-12-28T03:54:28;18.25;;;13.52;;
35917;SDS011;22011;59.912;30.300;2023-12-28T03:56:56;21.30;;;13.65;;
35917;SDS011;22011;59.912;30.300;2023-12-28T03:59:24;23.27;;;13.85;;
35917;SDS011;22011;59.912;30.300;2023-12-28T04:01:53;24.63;;;14.60;;
35917;SDS011;22011;59.912;30.300;2023-12-28T04:04:20;19.05;;;13.82;;
35917;SDS011;22011;59.912;30.300;2023-12-28T04:06:49;18.00;;;12.48;;
35917;SDS011;22011;59.912;30.300;2023-12-28T04:09:18;17.67;;;11.43;;
35917;SDS011;22011;59.912;30.300;2023-12-28T04:11:46;17.08;;;9.65;;
35917;SDS011;22011;59.912;30.300;2023-12-28T04:14:13;15.32;;;8.80;;
35917;SDS011;22011;59.912;30.300;2023-12-28T04:16:41;16.38;;;8.30;;
35917;SDS011;22011;59.912;30.300;2023-12-28T04:19:09;18.17;;;10.43;;
35917;SDS011;22011;59.912;30.300;2023-12-28T04:21:36;14.90;;;9.25;;
35917;SDS011;22011;59.912;30.300;2023-12-28T04:24:04;15.90;;;9.05;;
35917;SDS011;22011;59.912;30.300;2023-12-28T04:26:34;15.35;;;9.32;;
35917;SDS011;22011;59.912;30.300;2023-12-28T04:29:02;17.45;;;9.55;;
35917;SDS011;22011;59.912;30.300;2023-12-28T04:31:30;19.23;;;9.75;;
35917;SDS011;22011;59.912;30.300;2023-12-28T04:33:57;17.42;;;10.07;;
35917;SDS011;22011;59.912;30.300;2023-12-28T04:36:25;18.00;;;10.02;;
35917;SDS011;22011;59.912;30.300;2023-12-28T04:38:53;14.57;;;9.68;;
35917;SDS011;22011;59.912;30.300;2023-12-28T04:41:21;21.33;;;10.68;;
35917;SDS011;22011;59.912;30.300;2023-12-28T04:43:50;17.70;;;10.77;;
35917;SDS011;22011;59.912;30.300;2023-12-28T04:46:18;17.08;;;9.40;;
35917;SDS011;22011;59.912;30.300;2023-12-28T04:48:45;21.00;;;9.38;;
35917;SDS011;22011;59.912;30.300;2023-12-28T04:51:13;18.25;;;10.00;;
35917;SDS011;22011;59.912;30.300;2023-12-28T04:53:41;14.75;;;9.48;;
35917;SDS011;22011;59.912;30.300;2023-12-28T04:56:09;19.13;;;9.85;;
35917;SDS011;22011;59.912;30.300;2023-12-28T04:58:36;15.93;;;8.25;;
35917;SDS011;22011;59.912;30.300;2023-12-28T05:01:05;13.63;;;8.77;;
35917;SDS011;22011;59.912;30.300;2023-12-28T05:03:33;16.50;;;9.25;;
35917;SDS011;22011;59.912;30.300;2023-12-28T05:06:01;19.77;;;10.00;;
35917;SDS011;22011;59.912;30.300;2023-12-28T05:08:29;14.32;;;9.60;;
35917;SDS011;22011;59.912;30.300;2023-12-28T05:10:57;19.00;;;9.52;;
35917;SDS011;22011;59.912;30.300;2023-12-28T05:13:25;18.92;;;8.25;;
35917;SDS011;22011;59.912;30.300;2023-12-28T05:15:53;13.70;;;7.95;;
35917;SDS011;22011;59.912;30.300;2023-12-28T05:18:22;14.82;;;8.50;;
35917;SDS011;22011;59.912;30.300;2023-12-28T05:20:49;11.57;;;8.02;;
35917;SDS011;22011;59.912;30.300;2023-12-28T05:23:17;12.05;;;7.50;;
35917;SDS011;22011;59.912;30.300;2023-12-28T05:25:45;13.27;;;6.57;;
35917;SDS011;22011;59.912;30.300;2023-12-28T05:28:14;12.85;;;7.45;;
35917;SDS011;22011;59.912;30.300;2023-12-28T05:30:42;15.93;;;7.70;;
35917;SDS011;22011;59.912;30.300;2023-12-28T05:33:09;10.88;;;7.95;;
35917;SDS011;22011;59.912;30.300;2023-12-28T05:35:38;16.50;;;8.93;;
35917;SDS011;22011;59.912;30.300;2023-12-28T05:38:06;13.25;;;7.40;;
35917;SDS011;22011;59.912;30.300;2023-12-28T05:40:33;13.35;;;6.93;;
35917;SDS011;22011;59.912;30.300;2023-12-28T05:43:01;12.63;;;7.75;;
35917;SDS011;22011;59.912;30.300;2023-12-28T05:45:29;15.43;;;7.78;;
35917;SDS011;22011;59.912;30.300;2023-12-28T05:47:56;9.38;;;6.70;;
35917;SDS011;22011;59.912;30.300;2023-12-28T05:50:24;14.13;;;6.80;;
35917;SDS011;22011;59.912;30.300;2023-12-28T05:52:53;19.60;;;7.60;;
35917;SDS011;22011;59.912;30.300;2023-12-28T05:55:21;11.38;;;7.68;;
35917;SDS011;22011;59.912;30.300;2023-12-28T05:57:49;21.08;;;6.85;;
35917;SDS011;22011;59.912;30.300;2023-12-28T06:00:16;10.70;;;6.70;;
35917;SDS011;22011;59.912;30.300;2023-12-28T06:02:45;11.80;;;5.93;;
35917;SDS011;22011;59.912;30.300;2023-12-28T06:05:17;10.52;;;6.25;;
35917;SDS011;22011;59.912;30.300;2023-12-28T06:07:45;10.35;;;6.00;;
35917;SDS011;22011;59.912;30.300;2023-12-28T06:10:14;9.88;;;5.90;;
35917;SDS011;22011;59.912;30.300;2023-12-28T06:12:42;9.27;;;6.10;;
35917;SDS011;22011;59.912;30.300;2023-12-28T06:15:09;12.77;;;6.00;;
35917;SDS011;22011;59.912;30.300;2023-12-28T06:17:37;10.50;;;5.70;;
35917;SDS011;22011;59.912;30.300;2023-12-28T06:20:05;10.00;;;5.43;;
35917;SDS011;22011;59.912;30.300;2023-12-28T06:22:36;12.70;;;5.78;;
35917;SDS011;22011;59.912;30.300;2023-12-28T06:25:07;10.55;;;5.25;;
35917;SDS011;22011;59.912;30.300;2023-12-28T06:27:36;11.27;;;5.53;;
35917;SDS011;22011;59.912;30.300;2023-12-28T06:30:04;12.55;;;6.25;;
35917;SDS011;22011;59.912;30.300;2023-12-28T06:32:33;10.70;;;5.22;;
35917;SDS011;22011;59.912;30.300;2023-12-28T06:35:00;10.63;;;4.85;;
35917;SDS011;22011;59.912;30.300;2023-12-28T06:37:28;9.88;;;5.22;;
35917;SDS011;22011;59.912;30.300;2023-12-28T06:39:56;7.80;;;4.50;;
35917;SDS011;22011;59.912;30.300;2023-12-28T06:42:23;12.73;;;4.43;;
35917;SDS011;22011;59.912;30.300;2023-12-28T06:44:52;6.43;;;4.60;;
35917;SDS011;22011;59.912;30.300;2023-12-28T06:47:20;10.00;;;4.18;;
35917;SDS011;22011;59.912;30.300;2023-12-28T06:49:48;6.88;;;4.13;;
35917;SDS011;22011;59.912;30.300;2023-12-28T06:52:15;10.90;;;4.72;;
35917;SDS011;22011;59.912;30.300;2023-12-28T06:54:43;6.43;;;4.20;;
35917;SDS011;22011;59.912;30.300;2023-12-28T06:57:11;6.40;;;4.05;;
35917;SDS011;22011;59.912;30.300;2023-12-28T06:59:39;9.68;;;4.30;;
35917;SDS011;22011;59.912;30.300;2023-12-28T07:02:08;10.85;;;4.70;;
35917;SDS011;22011;59.912;30.300;2023-12-28T07:04:35;7.85;;;4.55;;
35917;SDS011;22011;59.912;30.300;2023-12-28T07:07:04;9.27;;;4.50;;
35917;SDS011;22011;59.912;30.300;2023-12-28T07:09:31;7.10;;;4.28;;
35917;SDS011;22011;59.912;30.300;2023-12-28T07:11:59;8.00;;;4.68;;
35917;SDS011;22011;59.912;30.300;2023-12-28T07:14:27;8.15;;;4.85;;
35917;SDS011;22011;59.912;30.300;2023-12-28T07:16:54;7.68;;;4.95;;
35917;SDS011;22011;59.912;30.300;2023-12-28T07:19:23;9.07;;;5.57;;
35917;SDS011;22011;59.912;30.300;2023-12-28T07:21:51;12.88;;;5.78;;
35917;SDS011;22011;59.912;30.300;2023-12-28T07:24:18;9.82;;;4.50;;
35917;SDS011;22011;59.912;30.300;2023-12-28T07:26:46;11.85;;;5.45;;
35917;SDS011;22011;59.912;30.300;2023-12-28T07:29:14;8.52;;;4.88;;
35917;SDS011;22011;59.912;30.300;2023-12-28T07:31:41;7.18;;;5.03;;
35917;SDS011;22011;59.912;30.300;2023-12-28T07:34:09;7.65;;;4.80;;
35917;SDS011;22011;59.912;30.300;2023-12-28T07:36:38;12.23;;;5.55;;
35917;SDS011;22011;59.912;30.300;2023-12-28T07:39:09;13.48;;;7.05;;
35917;SDS011;22011;59.912;30.300;2023-12-28T07:41:37;11.35;;;6.07;;
35917;SDS011;22011;59.912;30.300;2023-12-28T07:44:05;14.40;;;6.35;;
35917;SDS011;22011;59.912;30.300;2023-12-28T07:46:32;8.15;;;5.40;;
35917;SDS011;22011;59.912;30.300;2023-12-28T07:49:00;13.48;;;5.85;;
35917;SDS011;22011;59.912;30.300;2023-12-28T07:51:28;14.15;;;7.20;;
35917;SDS011;22011;59.912;30.300;2023-12-28T07:53:57;14.82;;;6.53;;
35917;SDS011;22011;59.912;30.300;2023-12-28T07:56:24;14.15;;;7.75;;
35917;SDS011;22011;59.912;30.300;2023-12-28T07:58:52;17.20;;;6.70;;
35917;SDS011;22011;59.912;30.300;2023-12-28T08:01:20;13.63;;;6.72;;
35917;SDS011;22011;59.912;30.300;2023-12-28T08:03:49;14.98;;;7.60;;
35917;SDS011;22011;59.912;30.300;2023-12-28T08:06:16;26.85;;;14.00;;
35917;SDS011;22011;59.912;30.300;2023-12-28T08:08:44;20.88;;;7.38;;
35917;SDS011;22011;59.912;30.300;2023-12-28T08:11:13;15.98;;;10.30;;
35917;SDS011;22011;59.912;30.300;2023-12-28T08:13:41;14.23;;;8.70;;
35917;SDS011;22011;59.912;30.300;2023-12-28T08:16:08;16.50;;;7.80;;
35917;SDS011;22011;59.912;30.300;2023-12-28T08:18:36;17.52;;;8.95;;
35917;SDS011;22011;59.912;30.300;2023-12-28T08:21:04;15.93;;;7.68;;
35917;SDS011;22011;59.912;30.300;2023-12-28T08:23:32;11.18;;;6.20;;
35917;SDS011;22011;59.912;30.300;2023-12-28T08:26:00;9.82;;;6.30;;
35917;SDS011;22011;59.912;30.300;2023-12-28T08:28:29;10.18;;;5.60;;
35917;SDS011;22011;59.912;30.300;2023-12-28T08:30:57;13.57;;;6.10;;
35917;SDS011;22011;59.912;30.300;2023-12-28T08:33:25;9.93;;;5.38;;
35917;SDS011;22011;59.912;30.300;2023-12-28T08:35:52;10.15;;;6.15;;
35917;SDS011;22011;59.912;30.300;2023-12-28T08:38:20;19.80;;;6.97;;
35917;SDS011;22011;59.912;30.300;2023-12-28T08:40:48;10.45;;;5.68;;
35917;SDS011;22011;59.912;30.300;2023-12-28T08:43:16;12.40;;;5.63;;
35917;SDS011;22011;59.912;30.300;2023-12-28T08:45:45;8.82;;;5.32;;
35917;SDS011;22011;59.912;30.300;2023-12-28T08:48:13;8.32;;;5.80;;
35917;SDS011;22011;59.912;30.300;2023-12-28T08:50:41;7.97;;;4.97;;
35917;SDS011;22011;59.912;30.300;2023-12-28T08:53:09;13.75;;;5.47;;
35917;SDS011;22011;59.912;30.300;2023-12-28T08:55:36;11.60;;;4.40;;
35917;SDS011;22011;59.912;30.300;2023-12-28T08:58:04;8.82;;;4.97;;
35917;SDS011;22011;59.912;30.300;2023-12-28T09:00:32;7.80;;;5.00;;
35917;SDS011;22011;59.912;30.300;2023-12-28T09:03:01;8.82;;;5.38;;
35917;SDS011;22011;59.912;30.300;2023-12-28T09:05:28;10.77;;;5.38;;
35917;SDS011;22011;59.912;30.300;2023-12-28T09:07:56;8.82;;;4.57;;
35917;SDS011;22011;59.912;30.300;2023-12-28T09:10:24;9.68;;;5.00;;
35917;SDS011;22011;59.912;30.300;2023-12-28T09:12:52;12.68;;;6.00;;
35917;SDS011;22011;59.912;30.300;2023-12-28T09:15:20;9.20;;;5.68;;
35917;SDS011;22011;59.912;30.300;2023-12-28T09:17:47;10.50;;;5.60;;
35917;SDS011;22011;59.912;30.300;2023-12-28T09:20:17;9.35;;;5.38;;
35917;SDS011;22011;59.912;30.300;2023-12-28T09:22:45;8.07;;;5.00;;
35917;SDS011;22011;59.912;30.300;2023-12-28T09:25:13;9.50;;;5.00;;
35917;SDS011;22011;59.912;30.300;2023-12-28T09:27:41;6.75;;;4.50;;
35917;SDS011;22011;59.912;30.300;2023-12-28T09:30:09;6.53;;;4.32;;
35917;SDS011;22011;59.912;30.300;2023-12-28T09:32:37;6.25;;;3.78;;
35917;SDS011;22011;59.912;30.300;2023-12-28T09:35:05;8.02;;;4.07;;
35917;SDS011;22011;59.912;30.300;2023-12-28T09:37:34;8.68;;;5.03;;
35917;SDS011;22011;59.912;30.300;2023-12-28T09:40:02;9.90;;;5.57;;
35917;SDS011;22011;59.912;30.300;2023-12-28T09:42:32;13.80;;;6.68;;
35917;SDS011;22011;59.912;30.300;2023-12-28T09:45:06;11.95;;;7.13;;
35917;SDS011;22011;59.912;30.300;2023-12-28T09:47:35;10.40;;;6.03;;
35917;SDS011;22011;59.912;30.300;2023-12-28T09:50:03;10.05;;;7.03;;
35917;SDS011;22011;59.912;30.300;2023-12-28T09:52:32;12.85;;;7.63;;
35917;SDS011;22011;59.912;30.300;2023-12-28T09:55:01;12.50;;;7.55;;
35917;SDS011;22011;59.912;30.300;2023-12-28T09:57:30;10.82;;;6.97;;
35917;SDS011;22011;59.912;30.300;2023-12-28T09:59:58;14.90;;;7.93;;
35917;SDS011;22011;59.912;30.300;2023-12-28T10:02:26;14.27;;;8.05;;
35917;SDS011;22011;59.912;30.300;2023-12-28T10:04:54;14.88;;;9.55;;
35917;SDS011;22011;59.912;30.300;2023-12-28T10:07:21;17.42;;;8.98;;
35917;SDS011;22011;59.912;30.300;2023-12-28T10:09:49;13.38;;;8.05;;
35917;SDS011;22011;59.912;30.300;2023-12-28T10:12:18;15.05;;;7.65;;
35917;SDS011;22011;59.912;30.300;2023-12-28T10:14:46;13.75;;;7.82;;
35917;SDS011;22011;59.912;30.300;2023-12-28T10:17:14;13.40;;;8.18;;
35917;SDS011;22011;59.912;30.300;2023-12-28T10:19:41;11.73;;;7.32;;
35917;SDS011;22011;59.912;30.300;2023-12-28T10:22:13;11.70;;;7.30;;
35917;SDS011;22011;59.912;30.300;2023-12-28T10:24:41;11.35;;;6.38;;
35917;SDS011;22011;59.912;30.300;2023-12-28T10:27:09;11.68;;;7.10;;
35917;SDS011;22011;59.912;30.300;2023-12-28T10:29:39;12.13;;;6.70;;
35917;SDS011;22011;59.912;30.300;2023-12-28T10:32:06;13.27;;;7.60;;
35917;SDS011;22011;59.912;30.300;2023-12-28T10:34:34;12.57;;;7.25;;
35917;SDS011;22011;59.912;30.300;2023-12-28T10:37:01;15.40;;;7.28;;
35917;SDS011;22011;59.912;30.300;2023-12-28T10:42:02;11.57;;;7.13;;
35917;SDS011;22011;59.912;30.300;2023-12-28T10:44:36;14.93;;;7.82;;
35917;SDS011;22011;59.912;30.300;2023-12-28T10:47:11;14.13;;;8.85;;
35917;SDS011;22011;59.912;30.300;2023-12-28T10:49:43;16.02;;;7.90;;
35917;SDS011;22011;59.912;30.300;2023-12-28T10:52:15;18.70;;;7.78;;
35917;SDS011;22011;59.912;30.300;2023-12-28T10:54:46;15.23;;;8.52;;
35917;SDS011;22011;59.912;30.300;2023-12-28T10:57:23;17.60;;;7.38;;
35917;SDS011;22011;59.912;30.300;2023-12-28T11:00:00;13.77;;;6.97;;
35917;SDS011;22011;59.912;30.300;2023-12-28T11:02:39;13.07;;;8.40;;
35917;SDS011;22011;59.912;30.300;2023-12-28T11:05:11;14.75;;;7.85;;
35917;SDS011;22011;59.912;30.300;2023-12-28T11:07:39;15.25;;;7.57;;
35917;SDS011;22011;59.912;30.300;2023-12-28T11:10:08;17.00;;;8.85;;
35917;SDS011;22011;59.912;30.300;2023-12-28T11:12:38;16.20;;;8.10;;
35917;SDS011;22011;59.912;30.300;2023-12-28T11:15:08;18.50;;;8.57;;
35917;SDS011;22011;59.912;30.300;2023-12-28T11:17:37;17.15;;;8.05;;
35917;SDS011;22011;59.912;30.300;2023-12-28T11:20:05;12.98;;;8.30;;
35917;SDS011;22011;59.912;30.300;2023-12-28T11:22:35;14.55;;;7.95;;
35917;SDS011;22011;59.912;30.300;2023-12-28T11:25:04;14.20;;;7.80;;
35917;SDS011;22011;59.912;30.300;2023-12-28T11:27:33;16.70;;;8.80;;
35917;SDS011;22011;59.912;30.300;2023-12-28T11:30:03;19.50;;;8.68;;
35917;SDS011;22011;59.912;30.300;2023-12-28T11:32:33;24.37;;;9.70;;
35917;SDS011;22011;59.912;30.300;2023-12-28T11:35:03;21.10;;;11.20;;
35917;SDS011;22011;59.912;30.300;2023-12-28T11:37:35;18.63;;;9.75;;
35917;SDS011;22011;59.912;30.300;2023-12-28T11:40:11;16.40;;;8.65;;
35917;SDS011;22011;59.912;30.300;2023-12-28T11:42:47;16.98;;;9.73;;
35917;SDS011;22011;59.912;30.300;2023-12-28T11:45:17;20.48;;;9.10;;
35917;SDS011;22011;59.912;30.300;2023-12-28T11:47:46;16.55;;;8.85;;
35917;SDS011;22011;59.912;30.300;2023-12-28T11:50:25;22.33;;;8.90;;
35917;SDS011;22011;59.912;30.300;2023-12-28T11:52:52;19.58;;;9.68;;
35917;SDS011;22011;59.912;30.300;2023-12-28T11:55:20;22.10;;;10.27;;
35917;SDS011;22011;59.912;30.300;2023-12-28T11:57:49;19.58;;;9.63;;
35917;SDS011;22011;59.912;30.300;2023-12-28T12:00:18;19.20;;;9.93;;
35917;SDS011;22011;59.912;30.300;2023-12-28T12:02:48;30.48;;;11.30;;
35917;SDS011;22011;59.912;30.300;2023-12-28T12:05:16;22.92;;;9.98;;
35917;SDS011;22011;59.912;30.300;2023-12-28T12:07:44;22.92;;;10.05;;
35917;SDS011;22011;59.912;30.300;2023-12-28T12:10:14;19.05;;;9.73;;
35917;SDS011;22011;59.912;30.300;2023-12-28T12:12:42;25.02;;;11.00;;
35917;SDS011;22011;59.912;30.300;2023-12-28T12:15:10;20.88;;;9.57;;
35917;SDS011;22011;59.912;30.300;2023-12-28T12:17:38;25.63;;;9.65;;
35917;SDS011;22011;59.912;30.300;2023-12-28T12:20:07;25.13;;;9.25;;
35917;SDS011;22011;59.912;30.300;2023-12-28T12:22:35;15.57;;;8.60;;
35917;SDS011;22011;59.912;30.300;2023-12-28T12:25:03;21.70;;;8.25;;
35917;SDS011;22011;59.912;30.300;2023-12-28T12:27:33;14.02;;;7.10;;
35917;SDS011;22011;59.912;30.300;2023-12-28T12:30:01;16.75;;;6.80;;
35917;SDS011;22011;59.912;30.300;2023-12-28T12:32:29;15.82;;;6.80;;
35917;SDS011;22011;59.912;30.300;2023-12-28T12:34:57;10.05;;;5.53;;
35917;SDS011;22011;59.912;30.300;2023-12-28T12:37:27;15.63;;;5.13;;
35917;SDS011;22011;59.912;30.300;2023-12-28T12:39:54;14.25;;;5.32;;
35917;SDS011;22011;59.912;30.300;2023-12-28T12:42:22;9.73;;;5.13;;
35917;SDS011;22011;59.912;30.300;2023-12-28T12:44:50;7.65;;;4.15;;
35917;SDS011;22011;59.912;30.300;2023-12-28T12:47:18;12.63;;;4.55;;
35917;SDS011;22011;59.912;30.300;2023-12-28T12:49:45;9.13;;;3.65;;
35917;SDS011;22011;59.912;30.300;2023-12-28T12:52:13;5.43;;;3.47;;
35917;SDS011;22011;59.912;30.300;2023-12-28T12:54:42;8.88;;;3.55;;
35917;SDS011;22011;59.912;30.300;2023-12-28T12:57:10;9.57;;;3.95;;
35917;SDS011;22011;59.912;30.300;2023-12-28T12:59:38;8.77;;;3.42;;
35917;SDS011;22011;59.912;30.300;2023-12-28T13:02:07;11.18;;;4.10;;
35917;SDS011;22011;59.912;30.300;2023-12-28T13:04:35;11.10;;;5.17;;
35917;SDS011;22011;59.912;30.300;2023-12-28T13:07:05;10.13;;;5.07;;
35917;SDS011;22011;59.912;30.300;2023-12-28T13:09:32;9.35;;;4.90;;
35917;SDS011;22011;59.912;30.300;2023-12-28T13:12:02;8.70;;;4.53;;
35917;SDS011;22011;59.912;30.300;2023-12-28T13:14:30;8.00;;;4.70;;
35917;SDS011;22011;59.912;30.300;2023-12-28T13:16:58;11.40;;;4.68;;
35917;SDS011;22011;59.912;30.300;2023-12-28T13:19:25;9.55;;;4.68;;
35917;SDS011;22011;59.912;30.300;2023-12-28T13:21:54;11.10;;;4.60;;
35917;SDS011;22011;59.912;30.300;2023-12-28T13:24:21;15.80;;;3.92;;
35917;SDS011;22011;59.912;30.300;2023-12-28T13:26:49;10.00;;;4.20;;
35917;SDS011;22011;59.912;30.300;2023-12-28T13:29:18;8.05;;;3.85;;
35917;SDS011;22011;59.912;30.300;2023-12-28T13:31:46;7.63;;;3.75;;
35917;SDS011;22011;59.912;30.300;2023-12-28T13:34:16;8.88;;;3.40;;
35917;SDS011;22011;59.912;30.300;2023-12-28T13:36:44;8.93;;;3.47;;
35917;SDS011;22011;59.912;30.300;2023-12-28T13:39:12;8.75;;;2.92;;
35917;SDS011;22011;59.912;30.300;2023-12-28T13:41:40;9.73;;;3.42;;
35917;SDS011;22011;59.912;30.300;2023-12-28T13:44:08;19.48;;;3.60;;
35917;SDS011;22011;59.912;30.300;2023-12-28T13:46:39;7.55;;;3.15;;
35917;SDS011;22011;59.912;30.300;2023-12-28T13:49:07;10.95;;;4.72;;
35917;SDS011;22011;59.912;30.300;2023-12-28T13:51:34;9.18;;;3.97;;
35917;SDS011;22011;59.912;30.300;2023-12-28T13:54:02;11.35;;;3.33;;
35917;SDS011;22011;59.912;30.300;2023-12-28T13:56:31;12.05;;;3.70;;
35917;SDS011;22011;59.912;30.300;2023-12-28T13:58:59;8.77;;;3.22;;
35917;SDS011;22011;59.912;30.300;2023-12-28T14:01:26;9.82;;;3.90;;
35917;SDS011;22011;59.912;30.300;2023-12-28T14:03:55;14.70;;;4.25;;
35917;SDS011;22011;59.912;30.300;2023-12-28T14:06:23;9.63;;;3.35;;
35917;SDS011;22011;59.912;30.300;2023-12-28T14:08:51;10.40;;;3.25;;
35917;SDS011;22011;59.912;30.300;2023-12-28T14:11:18;6.43;;;2.60;;
35917;SDS011;22011;59.912;30.300;2023-12-28T14:13:46;11.80;;;2.60;;
35917;SDS011;22011;59.912;30.300;2023-12-28T14:16:14;6.60;;;1.95;;
35917;SDS011;22011;59.912;30.300;2023-12-28T14:18:41;7.30;;;2.35;;
35917;SDS011;22011;59.912;30.300;2023-12-28T14:21:10;5.20;;;2.10;;
35917;SDS011;22011;59.912;30.300;2023-12-28T14:23:39;9.30;;;2.00;;
35917;SDS011;22011;59.912;30.300;2023-12-28T14:26:09;8.25;;;2.03;;
35917;SDS011;22011;59.912;30.300;2023-12-28T14:28:40;3.88;;;1.70;;
35917;SDS011;22011;59.912;30.300;2023-12-28T14:31:09;4.63;;;1.65;;
35917;SDS011;22011;59.912;30.300;2023-12-28T14:33:37;4.55;;;1.60;;
35917;SDS011;22011;59.912;30.300;2023-12-28T14:36:06;7.60;;;2.10;;
35917;SDS011;22011;59.912;30.300;2023-12-28T14:38:54;8.13;;;2.42;;